Terminal Aerodrome Forecast
Issued by NWS

Home | Current Version | Previous Version | Text Only | Print | Product List | Glossary On
Versions: 1 2 3 4 5 6 7 8 9 10 11 12 13 14 15 16 17 18 19 20 21 22 23 24 25 26 27 28 29 30 31 32 33 34 35 36 37 38
647
FTUS43 KDDC 121730
TAFGCK
TAF
KGCK 121730Z 1218/1318 05010KT P6SM SKC
     FM122100 09011KT P6SM SCT250
     FM130700 12011KT P6SM SCT020=

USA.gov is the U.S. government's official web portal to all federal, state and local government web resources and services.